Time;durP1;ratioP1;P1;durP2;ratioP2;P2;SDS_P1;SDS_P2;PMS_P1;PMS_P2;Temp;Humidity;BMP_temperature;BMP_pressure;BME280_temperature;BME280_humidity;BME280_pressure;Samples;Min_cycle;Max_cycle;Signal;HPM_P1;HPM_P2
2023/07/30 00:01:41;;;;;;;26.30;7.43;;;15.80;98.60;;;;;;5045605;28;20103;-71
2023/07/30 00:04:07;;;;;;;28.37;6.80;;;15.80;98.50;;;;;;5039191;28;20037;-71
2023/07/30 00:06:33;;;;;;;31.30;6.80;;;15.80;98.60;;;;;;5043253;28;20076;-71
2023/07/30 00:08:58;;;;;;;29.93;7.07;;;15.80;98.50;;;;;;5034048;28;20044;-71
2023/07/30 00:11:24;;;;;;;29.20;7.67;;;15.80;98.40;;;;;;5047150;28;20572;-71
2023/07/30 00:13:50;;;;;;;33.53;7.73;;;15.90;98.70;;;;;;5041227;28;20056;-71
2023/07/30 00:16:15;;;;;;;32.00;6.97;;;15.90;98.70;;;;;;5037016;28;20041;-71
2023/07/30 00:18:41;;;;;;;31.80;6.60;;;15.90;99.00;;;;;;5038698;28;20128;-71
2023/07/30 00:21:07;;;;;;;29.13;7.30;;;15.90;99.40;;;;;;5049278;28;20076;-71
2023/07/30 00:23:32;;;;;;;31.83;7.53;;;16.00;99.30;;;;;;5043407;28;20036;-71
2023/07/30 00:25:58;;;;;;;30.67;6.90;;;16.00;99.20;;;;;;5047644;28;20293;-71
2023/07/30 00:28:24;;;;;;;32.70;6.37;;;16.00;99.10;;;;;;5040060;28;20513;-71
2023/07/30 00:30:49;;;;;;;34.30;7.00;;;16.10;99.30;;;;;;5022612;28;20674;-71
2023/07/30 00:33:15;;;;;;;31.63;7.90;;;16.10;99.30;;;;;;5038226;28;20076;-71
2023/07/30 00:35:41;;;;;;;23.40;6.47;;;16.20;99.60;;;;;;5043126;28;20040;-70
2023/07/30 00:38:06;;;;;;;29.53;7.60;;;16.20;99.50;;;;;;5042646;28;20141;-71
2023/07/30 00:40:32;;;;;;;31.20;7.13;;;16.20;99.40;;;;;;5042806;28;20041;-71
2023/07/30 00:42:58;;;;;;;31.17;7.13;;;16.20;99.60;;;;;;5033930;28;20416;-71
2023/07/30 00:45:23;;;;;;;33.13;7.33;;;16.20;99.70;;;;;;5046960;28;20589;-71
2023/07/30 00:47:49;;;;;;;30.27;7.23;;;16.30;99.80;;;;;;5040951;28;20114;-71
2023/07/30 00:50:16;;;;;;;33.40;6.80;;;16.30;99.80;;;;;;5042745;28;20049;-70
2023/07/30 00:52:43;;;;;;;26.53;6.57;;;16.40;99.90;;;;;;5045801;28;20553;-71
2023/07/30 00:55:10;;;;;;;28.83;6.03;;;16.40;99.90;;;;;;5032092;28;20382;-71
2023/07/30 00:57:37;;;;;;;23.33;5.40;;;16.50;99.90;;;;;;5037800;28;20306;-71
2023/07/30 01:00:05;;;;;;;28.17;6.20;;;16.50;99.90;;;;;;5031602;28;20283;-71
2023/07/30 01:02:32;;;;;;;30.83;6.20;;;16.60;99.90;;;;;;5038544;28;20284;-71
2023/07/30 01:04:59;;;;;;;28.27;6.83;;;16.60;99.90;;;;;;5037835;28;20283;-71
2023/07/30 01:07:25;;;;;;;24.37;6.33;;;16.70;99.90;;;;;;5038030;28;20288;-71
2023/07/30 01:09:52;;;;;;;25.77;6.30;;;16.70;99.90;;;;;;5041144;28;20283;-71
2023/07/30 01:12:17;;;;;;;26.97;6.07;;;16.80;99.90;;;;;;5005827;28;20120;-71
2023/07/30 01:14:45;;;;;;;28.83;6.20;;;16.80;99.90;;;;;;5014709;28;20288;-71
2023/07/30 01:17:12;;;;;;;27.90;6.07;;;16.80;99.90;;;;;;5005005;28;20041;-71
2023/07/30 01:19:37;;;;;;;27.37;6.53;;;16.90;99.90;;;;;;5011093;28;20371;-71
2023/07/30 01:22:03;;;;;;;23.73;5.80;;;16.90;99.80;;;;;;5013981;28;20370;-70
2023/07/30 01:24:29;;;;;;;25.40;6.10;;;16.90;99.60;;;;;;5015362;28;20041;-71
2023/07/30 01:27:05;;;;;;;28.87;6.10;;;16.90;99.50;;;;;;5009831;28;20042;-71
2023/07/30 01:29:31;;;;;;;24.17;6.87;;;16.90;99.50;;;;;;5013463;28;20041;-71
2023/07/30 01:32:04;;;;;;;25.50;6.17;;;16.80;99.50;;;;;;5010815;28;20287;-71
2023/07/30 01:34:34;;;;;;;27.17;5.73;;;16.80;99.40;;;;;;5011608;28;20049;-71
2023/07/30 01:37:01;;;;;;;27.13;6.10;;;16.70;99.50;;;;;;5007385;28;20350;-71
2023/07/30 01:39:27;;;;;;;29.13;5.57;;;16.70;99.50;;;;;;5011448;28;20818;-71
2023/07/30 01:41:56;;;;;;;30.77;6.30;;;16.70;99.50;;;;;;5014226;28;20337;-71
2023/07/30 01:44:22;;;;;;;27.43;6.27;;;16.60;99.50;;;;;;4997959;28;20791;-71
2023/07/30 01:46:48;;;;;;;26.83;5.83;;;16.60;99.50;;;;;;5012054;28;20281;-71
2023/07/30 01:49:13;;;;;;;27.03;6.23;;;16.60;99.80;;;;;;4999297;28;20045;-71
2023/07/30 01:51:39;;;;;;;30.43;6.27;;;16.60;99.70;;;;;;5012039;28;20045;-71
2023/07/30 01:54:05;;;;;;;30.83;5.87;;;16.50;99.60;;;;;;5010115;28;20117;-71
2023/07/30 01:56:30;;;;;;;25.80;5.40;;;16.50;99.50;;;;;;5012599;28;20055;-70
2023/07/30 01:58:56;;;;;;;35.57;7.17;;;16.50;99.70;;;;;;5010475;28;20048;-71
2023/07/30 02:01:22;;;;;;;26.40;6.27;;;16.50;99.80;;;;;;4995774;28;20053;-71
2023/07/30 02:03:47;;;;;;;29.73;6.50;;;16.40;99.80;;;;;;5002884;28;20075;-71
2023/07/30 02:06:13;;;;;;;24.87;5.97;;;16.40;99.70;;;;;;4984590;28;20071;-71
2023/07/30 02:08:39;;;;;;;25.90;6.63;;;16.40;99.70;;;;;;5011631;28;20061;-71
2023/07/30 02:11:04;;;;;;;27.17;5.80;;;16.40;99.90;;;;;;5031684;28;20053;-71
2023/07/30 02:13:30;;;;;;;21.07;5.67;;;16.30;99.90;;;;;;5052177;28;20443;-71
2023/07/30 02:15:56;;;;;;;23.70;5.80;;;16.30;99.80;;;;;;5046512;28;20094;-71
2023/07/30 02:18:21;;;;;;;25.87;5.27;;;16.30;99.90;;;;;;5047877;28;20064;-71
2023/07/30 02:20:47;;;;;;;28.53;6.10;;;16.30;99.90;;;;;;5039623;28;20037;-70
2023/07/30 02:23:16;;;;;;;26.97;6.13;;;16.20;99.90;;;;;;5037657;28;20037;-71
2023/07/30 02:25:42;;;;;;;25.47;5.60;;;16.20;99.90;;;;;;5043163;28;20712;-71
2023/07/30 02:28:09;;;;;;;33.27;6.30;;;16.20;99.90;;;;;;5046569;28;20810;-71
2023/07/30 02:30:35;;;;;;;29.27;6.57;;;16.20;99.90;;;;;;5045461;28;20866;-71
2023/07/30 02:33:01;;;;;;;25.43;5.27;;;16.10;99.90;;;;;;5048379;28;20481;-71
2023/07/30 02:35:26;;;;;;;24.87;5.60;;;16.10;99.90;;;;;;5047847;28;20041;-71
2023/07/30 02:37:52;;;;;;;33.30;6.23;;;16.10;99.90;;;;;;5047621;28;21030;-71
2023/07/30 02:40:18;;;;;;;24.03;6.43;;;16.10;99.90;;;;;;5047451;28;20052;-71
2023/07/30 02:42:44;;;;;;;25.37;4.63;;;16.10;99.90;;;;;;5045168;28;20065;-71
2023/07/30 02:45:09;;;;;;;28.20;5.87;;;16.10;99.90;;;;;;5033892;28;20041;-71
2023/07/30 02:47:35;;;;;;;27.23;6.13;;;16.10;99.90;;;;;;5046849;28;20181;-71
2023/07/30 02:50:02;;;;;;;24.70;4.97;;;16.10;99.90;;;;;;5037159;28;20043;-71
2023/07/30 02:52:28;;;;;;;22.00;5.43;;;16.10;99.90;;;;;;5041268;28;20077;-71
2023/07/30 02:54:54;;;;;;;20.10;5.43;;;16.10;99.90;;;;;;5043249;28;20682;-71
2023/07/30 02:57:19;;;;;;;19.60;4.27;;;16.10;99.90;;;;;;5045558;28;20037;-71
2023/07/30 02:59:45;;;;;;;26.07;5.10;;;16.10;99.90;;;;;;5046826;28;20076;-71
2023/07/30 03:02:11;;;;;;;21.40;4.70;;;16.10;99.90;;;;;;5043588;28;20447;-71
2023/07/30 03:04:37;;;;;;;23.73;4.63;;;16.10;99.90;;;;;;5044694;28;20681;-71
2023/07/30 03:07:02;;;;;;;19.63;3.83;;;16.10;99.90;;;;;;5026468;28;20045;-71
2023/07/30 03:09:28;;;;;;;31.90;5.67;;;16.10;99.90;;;;;;5043240;28;20049;-71
2023/07/30 03:11:54;;;;;;;23.53;5.17;;;16.10;99.90;;;;;;5046729;28;20167;-71
2023/07/30 03:14:22;;;;;;;19.90;4.37;;;16.10;99.90;;;;;;5049014;28;20053;-71
2023/07/30 03:16:48;;;;;;;26.40;4.40;;;16.00;99.90;;;;;;5037098;28;20116;-71
2023/07/30 03:19:15;;;;;;;24.47;4.63;;;16.00;99.90;;;;;;5066241;28;20287;-71
2023/07/30 03:21:41;;;;;;;20.00;4.37;;;16.00;99.90;;;;;;5048850;28;20767;-71
2023/07/30 03:24:06;;;;;;;20.30;4.23;;;16.00;99.90;;;;;;5031506;28;20291;-71
2023/07/30 03:26:32;;;;;;;22.47;4.37;;;16.00;99.90;;;;;;5045352;28;20044;-71
2023/07/30 03:28:58;;;;;;;19.47;4.07;;;15.90;99.90;;;;;;5048455;28;20041;-71
2023/07/30 03:31:23;;;;;;;19.10;3.63;;;15.90;99.90;;;;;;5048204;28;20132;-71
2023/07/30 03:33:49;;;;;;;20.73;4.63;;;15.90;99.90;;;;;;5049516;28;20049;-71
2023/07/30 03:36:15;;;;;;;15.70;3.60;;;15.90;99.90;;;;;;5041563;28;20055;-71
2023/07/30 03:38:41;;;;;;;17.20;3.60;;;15.90;99.90;;;;;;5042525;28;20032;-71
2023/07/30 03:41:07;;;;;;;17.23;3.47;;;15.80;99.90;;;;;;5046817;28;20130;-71
2023/07/30 03:43:34;;;;;;;15.03;3.13;;;15.80;99.70;;;;;;5014299;28;20276;-71
2023/07/30 03:46:00;;;;;;;13.33;3.20;;;15.80;99.30;;;;;;5032252;28;20040;-71
2023/07/30 03:48:25;;;;;;;12.67;2.60;;;15.90;98.70;;;;;;5031444;28;21169;-71
2023/07/30 03:50:55;;;;;;;16.07;2.67;;;15.80;98.40;;;;;;5044187;28;20049;-71
2023/07/30 03:53:21;;;;;;;14.90;2.73;;;15.80;97.90;;;;;;5038953;28;20042;-71
2023/07/30 03:55:47;;;;;;;13.90;2.30;;;15.80;97.40;;;;;;5029682;28;20451;-71
2023/07/30 03:58:13;;;;;;;12.67;2.83;;;15.80;97.10;;;;;;5029530;28;20362;-71
2023/07/30 04:00:39;;;;;;;15.63;2.33;;;15.80;96.80;;;;;;5028475;28;20053;-71
2023/07/30 04:03:05;;;;;;;10.33;1.93;;;15.80;96.60;;;;;;5042409;28;20037;-71
2023/07/30 04:05:31;;;;;;;9.97;1.90;;;15.80;96.40;;;;;;5043274;28;20295;-71
2023/07/30 04:07:57;;;;;;;12.37;2.20;;;15.80;96.30;;;;;;5041883;28;20636;-71
2023/07/30 04:10:23;;;;;;;14.20;2.40;;;15.80;96.20;;;;;;5018803;28;20044;-71
2023/07/30 04:12:49;;;;;;;13.10;2.57;;;15.80;96.00;;;;;;5044429;28;20148;-71
2023/07/30 04:15:15;;;;;;;11.23;2.00;;;15.80;95.90;;;;;;5046996;28;20037;-71
2023/07/30 04:17:41;;;;;;;10.20;1.60;;;15.90;95.70;;;;;;5047517;28;20079;-71
2023/07/30 04:20:09;;;;;;;8.93;1.83;;;15.90;95.20;;;;;;5046919;28;20291;-71
2023/07/30 04:22:35;;;;;;;8.27;1.70;;;15.90;95.20;;;;;;5041561;28;20037;-71
2023/07/30 04:25:01;;;;;;;11.40;2.27;;;15.90;95.00;;;;;;5025879;28;20294;-71
2023/07/30 04:27:27;;;;;;;11.17;1.80;;;16.00;94.50;;;;;;5042331;28;21036;-71
2023/07/30 04:29:52;;;;;;;12.20;1.77;;;16.00;94.10;;;;;;5042614;28;20905;-71
2023/07/30 04:32:18;;;;;;;10.07;2.23;;;16.00;94.00;;;;;;5044561;28;20053;-71
2023/07/30 04:34:44;;;;;;;9.77;1.60;;;16.10;93.20;;;;;;5046550;28;20576;-71
2023/07/30 04:37:09;;;;;;;11.77;1.80;;;16.10;92.00;;;;;;5046495;28;20049;-71
2023/07/30 04:39:36;;;;;;;12.27;1.97;;;16.20;91.60;;;;;;5046449;28;20071;-71
2023/07/30 04:42:02;;;;;;;11.13;2.03;;;16.20;91.80;;;;;;5035796;28;20037;-71
2023/07/30 04:44:28;;;;;;;10.70;1.60;;;16.20;90.70;;;;;;5018921;28;20756;-71
2023/07/30 04:46:54;;;;;;;13.53;2.00;;;16.30;90.70;;;;;;5021837;28;20294;-71
2023/07/30 04:49:20;;;;;;;10.17;1.83;;;16.30;90.50;;;;;;5037495;28;20037;-71
2023/07/30 04:51:45;;;;;;;8.67;1.77;;;16.30;90.40;;;;;;5046006;28;20051;-70
2023/07/30 04:54:11;;;;;;;11.00;1.70;;;16.30;90.40;;;;;;5028719;28;20524;-71
2023/07/30 04:56:37;;;;;;;13.00;2.10;;;16.40;90.40;;;;;;5045454;28;20464;-70
2023/07/30 04:59:03;;;;;;;9.87;1.80;;;16.40;89.30;;;;;;5048057;28;20041;-70
2023/07/30 05:01:29;;;;;;;12.83;1.97;;;16.50;89.40;;;;;;5048410;28;20033;-70
2023/07/30 05:03:55;;;;;;;12.27;1.63;;;16.50;88.50;;;;;;5046794;28;20116;-70
2023/07/30 05:06:20;;;;;;;10.23;2.33;;;16.50;87.10;;;;;;5040532;28;20041;-70
2023/07/30 05:08:46;;;;;;;11.77;1.73;;;16.60;86.70;;;;;;5043838;28;20336;-71
2023/07/30 05:11:12;;;;;;;10.17;1.33;;;16.60;86.90;;;;;;5047866;28;20049;-70
2023/07/30 05:13:38;;;;;;;13.87;1.97;;;16.60;86.90;;;;;;5046339;28;20057;-70
2023/07/30 05:16:04;;;;;;;10.50;2.07;;;16.60;86.40;;;;;;5036367;28;20405;-70
2023/07/30 05:18:29;;;;;;;10.17;1.77;;;16.60;86.10;;;;;;5043049;28;20071;-70
2023/07/30 05:20:55;;;;;;;7.70;1.60;;;16.70;86.10;;;;;;5043684;28;20040;-70
2023/07/30 05:23:21;;;;;;;6.67;2.20;;;16.80;86.00;;;;;;5033749;28;20041;-70
2023/07/30 05:25:47;;;;;;;9.63;1.50;;;16.90;85.50;;;;;;5043542;28;20788;-71
2023/07/30 05:28:13;;;;;;;10.00;2.30;;;16.90;83.80;;;;;;5039425;28;20052;-70
2023/07/30 05:30:38;;;;;;;11.10;1.97;;;17.00;84.50;;;;;;5031296;28;20515;-71
2023/07/30 05:33:04;;;;;;;12.87;3.00;;;17.00;84.50;;;;;;5049009;28;20032;-70
2023/07/30 05:35:30;;;;;;;7.87;1.60;;;17.10;84.30;;;;;;5037442;28;20041;-70
2023/07/30 05:37:56;;;;;;;8.67;1.60;;;17.10;84.10;;;;;;5026429;28;20114;-70
2023/07/30 05:40:22;;;;;;;14.23;2.43;;;17.10;83.90;;;;;;5038327;28;20729;-70
2023/07/30 05:42:48;;;;;;;10.80;2.00;;;17.10;83.20;;;;;;5013423;28;20112;-70
2023/07/30 05:45:13;;;;;;;8.13;1.80;;;17.10;83.60;;;;;;5039841;28;20484;-71
2023/07/30 05:47:39;;;;;;;8.83;1.83;;;17.10;84.00;;;;;;5046629;28;20545;-70
2023/07/30 05:50:06;;;;;;;11.47;2.10;;;17.00;83.40;;;;;;5031700;28;20560;-70
2023/07/30 05:52:32;;;;;;;15.27;2.30;;;17.00;84.00;;;;;;5015855;28;20524;-70
2023/07/30 05:54:58;;;;;;;9.77;2.10;;;17.00;83.40;;;;;;5042432;28;20280;-71
2023/07/30 05:57:24;;;;;;;12.33;2.60;;;17.10;83.60;;;;;;5042974;28;20047;-70
2023/07/30 05:59:50;;;;;;;14.20;2.30;;;17.20;83.90;;;;;;5045537;28;20052;-70
2023/07/30 06:02:15;;;;;;;11.10;2.20;;;17.40;83.80;;;;;;5045564;28;20073;-71
2023/07/30 06:04:41;;;;;;;9.97;2.30;;;17.50;83.00;;;;;;5041458;28;20115;-71
2023/07/30 06:07:07;;;;;;;12.67;2.13;;;17.50;82.50;;;;;;5047314;28;20219;-70
2023/07/30 06:09:33;;;;;;;14.27;2.07;;;17.50;81.90;;;;;;5033405;28;20136;-70
2023/07/30 06:11:59;;;;;;;17.07;2.40;;;17.50;81.80;;;;;;5039308;28;20306;-70
2023/07/30 06:14:25;;;;;;;12.00;2.40;;;17.50;82.20;;;;;;5050189;28;20132;-70
2023/07/30 06:16:54;;;;;;;14.63;2.30;;;17.50;82.00;;;;;;5043106;28;20037;-70
2023/07/30 06:19:20;;;;;;;11.30;1.80;;;17.50;81.30;;;;;;5050122;28;20291;-70
2023/07/30 06:21:46;;;;;;;9.57;2.00;;;17.50;81.20;;;;;;5046341;28;20656;-71
2023/07/30 06:24:12;;;;;;;10.87;1.73;;;17.50;81.50;;;;;;5045571;28;20033;-71
2023/07/30 06:26:37;;;;;;;9.50;1.80;;;17.60;79.80;;;;;;5042031;28;20060;-71
2023/07/30 06:29:03;;;;;;;13.10;1.87;;;17.60;80.20;;;;;;5048304;28;20040;-71
2023/07/30 06:31:29;;;;;;;11.50;2.30;;;17.70;80.10;;;;;;5046226;28;20829;-71
2023/07/30 06:33:55;;;;;;;11.83;1.80;;;17.80;79.50;;;;;;5049883;28;20152;-70
2023/07/30 06:36:20;;;;;;;15.73;2.33;;;17.80;78.50;;;;;;5051876;28;20592;-70
2023/07/30 06:38:46;;;;;;;9.97;2.37;;;17.80;78.60;;;;;;5048097;28;20040;-70
2023/07/30 06:41:12;;;;;;;13.30;2.20;;;17.80;78.20;;;;;;5041593;28;20124;-70
2023/07/30 06:43:38;;;;;;;11.87;2.17;;;17.80;78.40;;;;;;5048428;28;20056;-70
2023/07/30 06:46:03;;;;;;;13.23;2.30;;;17.80;78.10;;;;;;5040706;28;20049;-70
2023/07/30 06:48:29;;;;;;;12.33;2.07;;;17.90;77.70;;;;;;5046163;28;20596;-71
2023/07/30 06:50:55;;;;;;;12.50;2.00;;;18.10;77.60;;;;;;5036971;28;20068;-71
2023/07/30 06:53:20;;;;;;;16.53;2.70;;;18.20;75.80;;;;;;5034431;28;20037;-70
2023/07/30 06:55:46;;;;;;;10.10;1.80;;;18.30;75.70;;;;;;5033827;28;20107;-71
2023/07/30 06:58:12;;;;;;;10.30;1.80;;;18.60;75.50;;;;;;5032123;28;20042;-71
2023/07/30 07:00:38;;;;;;;11.27;2.37;;;18.80;74.70;;;;;;5039405;28;20479;-71
2023/07/30 07:03:03;;;;;;;13.87;2.50;;;19.00;73.50;;;;;;5038678;28;20427;-71
2023/07/30 07:05:29;;;;;;;14.30;2.80;;;19.00;70.50;;;;;;5036594;28;20044;-71
2023/07/30 07:07:55;;;;;;;8.10;1.97;;;18.90;71.10;;;;;;5042116;28;20079;-70
2023/07/30 07:10:22;;;;;;;15.20;2.13;;;18.70;72.20;;;;;;5042792;28;20057;-70
2023/07/30 07:12:48;;;;;;;12.93;2.00;;;18.60;73.10;;;;;;5046565;28;20296;-71
2023/07/30 07:15:13;;;;;;;11.57;2.00;;;18.50;71.50;;;;;;5041355;28;20045;-70
2023/07/30 07:17:39;;;;;;;11.93;1.97;;;18.50;72.90;;;;;;5029789;28;20073;-70
2023/07/30 07:20:07;;;;;;;16.53;2.93;;;18.60;72.40;;;;;;5031560;28;20041;-71
2023/07/30 07:22:33;;;;;;;8.93;1.83;;;18.60;71.10;;;;;;5036029;28;20044;-70
2023/07/30 07:24:59;;;;;;;11.60;1.83;;;18.50;71.10;;;;;;5039162;28;20036;-70
2023/07/30 07:27:25;;;;;;;9.30;1.70;;;18.40;71.20;;;;;;5049945;28;20552;-70
2023/07/30 07:29:51;;;;;;;10.47;1.80;;;18.30;71.50;;;;;;5046670;28;20052;-70
2023/07/30 07:32:18;;;;;;;10.63;2.07;;;18.10;72.80;;;;;;5035665;28;20375;-70
2023/07/30 07:34:48;;;;;;;12.63;2.03;;;18.00;72.50;;;;;;5029108;28;20353;-71
2023/07/30 07:37:18;;;;;;;11.13;1.90;;;18.00;73.90;;;;;;5031819;28;20314;-70
2023/07/30 07:39:45;;;;;;;10.63;1.70;;;18.10;73.50;;;;;;5045431;28;20657;-70
2023/07/30 07:42:11;;;;;;;10.77;2.00;;;18.20;72.00;;;;;;5046041;28;20287;-70
2023/07/30 07:44:37;;;;;;;15.27;2.60;;;18.30;72.60;;;;;;5048760;28;20287;-70
2023/07/30 07:47:03;;;;;;;13.97;2.10;;;18.30;72.40;;;;;;5039854;28;20287;-70
2023/07/30 07:49:28;;;;;;;13.50;2.10;;;18.40;73.10;;;;;;5039235;28;20076;-70
2023/07/30 07:51:54;;;;;;;13.43;2.10;;;18.50;73.00;;;;;;5045392;28;20661;-70
2023/07/30 07:54:20;;;;;;;10.13;1.63;;;18.60;72.50;;;;;;5042875;28;20140;-70
2023/07/30 07:56:45;;;;;;;9.30;1.37;;;18.60;72.30;;;;;;5032157;28;20527;-70
2023/07/30 07:59:11;;;;;;;13.27;2.07;;;18.50;72.40;;;;;;5039082;28;20072;-71
2023/07/30 08:01:37;;;;;;;10.83;1.57;;;18.60;73.30;;;;;;5039061;28;20516;-70
2023/07/30 08:04:02;;;;;;;12.30;2.30;;;18.60;74.10;;;;;;5050404;28;20080;-70
2023/07/30 08:06:29;;;;;;;13.37;2.20;;;18.60;73.90;;;;;;5040866;28;20052;-70
2023/07/30 08:08:55;;;;;;;14.73;2.27;;;18.70;73.70;;;;;;5020033;28;20069;-70
2023/07/30 08:11:20;;;;;;;14.63;2.70;;;18.70;73.50;;;;;;5043786;28;20099;-70
2023/07/30 08:13:46;;;;;;;9.83;1.87;;;18.60;73.80;;;;;;5039943;28;20559;-70
2023/07/30 08:16:13;;;;;;;11.90;2.30;;;18.60;74.00;;;;;;5046849;28;20056;-70
2023/07/30 08:18:39;;;;;;;12.00;1.73;;;18.50;74.50;;;;;;5031129;28;20095;-70
2023/07/30 08:21:05;;;;;;;13.77;2.43;;;18.50;74.30;;;;;;5021908;28;20508;-70
2023/07/30 08:23:30;;;;;;;13.07;2.17;;;18.40;74.80;;;;;;5046135;28;20128;-70
2023/07/30 08:25:56;;;;;;;9.23;1.90;;;18.50;75.10;;;;;;5032095;28;20033;-70
2023/07/30 08:28:22;;;;;;;9.47;2.77;;;18.50;75.20;;;;;;5038950;28;20033;-70
2023/07/30 08:30:48;;;;;;;11.73;2.10;;;18.40;74.70;;;;;;5034220;28;20029;-70
2023/07/30 08:33:13;;;;;;;10.77;2.17;;;18.30;74.90;;;;;;5034292;28;20123;-70
2023/07/30 08:35:39;;;;;;;12.73;2.67;;;18.30;75.30;;;;;;5032985;28;20037;-70
2023/07/30 08:38:05;;;;;;;12.20;2.10;;;18.40;75.20;;;;;;5040259;28;20049;-70
2023/07/30 08:40:31;;;;;;;9.67;1.50;;;18.50;74.90;;;;;;5043160;28;20405;-70
2023/07/30 08:42:57;;;;;;;8.57;1.47;;;18.50;74.20;;;;;;5032171;28;20730;-70
2023/07/30 08:45:23;;;;;;;7.70;2.00;;;18.40;73.50;;;;;;5036902;28;20041;-70
2023/07/30 08:47:49;;;;;;;12.47;1.83;;;18.40;74.00;;;;;;5035338;28;20045;-70
2023/07/30 08:50:15;;;;;;;11.40;1.90;;;18.60;75.20;;;;;;5038790;28;20128;-70
2023/07/30 08:52:42;;;;;;;8.03;2.00;;;18.80;76.10;;;;;;5035566;28;20195;-70
2023/07/30 08:55:10;;;;;;;8.27;1.63;;;18.90;76.50;;;;;;5038548;28;20050;-70
2023/07/30 08:57:37;;;;;;;10.80;1.70;;;19.00;76.60;;;;;;5035677;28;20048;-70
2023/07/30 09:00:08;;;;;;;9.60;2.00;;;19.10;76.50;;;;;;5058784;28;20055;-70
2023/07/30 09:02:49;;;;;;;10.17;2.00;;;19.20;77.00;;;;;;5042012;28;20033;-70
2023/07/30 09:05:14;;;;;;;6.70;1.73;;;19.30;76.40;;;;;;5040686;28;20037;-70
2023/07/30 09:07:41;;;;;;;10.57;1.77;;;19.30;75.90;;;;;;5043320;28;20048;-71
2023/07/30 09:10:07;;;;;;;11.87;1.90;;;19.40;76.00;;;;;;5039234;28;20045;-71
2023/07/30 09:12:34;;;;;;;9.50;1.40;;;19.40;74.70;;;;;;5037280;28;20049;-71
2023/07/30 09:15:01;;;;;;;8.07;1.57;;;19.40;74.30;;;;;;5019313;28;20512;-71
2023/07/30 09:17:27;;;;;;;10.13;1.83;;;19.40;74.20;;;;;;5020410;28;20049;-71
2023/07/30 09:19:53;;;;;;;10.27;1.50;;;19.50;74.30;;;;;;5040382;28;20517;-71
2023/07/30 09:22:29;;;;;;;5.67;1.77;;;19.50;73.50;;;;;;5037818;28;20030;-71
2023/07/30 09:24:56;;;;;;;10.37;2.10;;;19.70;74.20;;;;;;5034316;28;20037;-70
2023/07/30 09:27:26;;;;;;;9.63;1.77;;;19.90;73.60;;;;;;5028666;28;20037;-70
2023/07/30 09:29:53;;;;;;;6.93;1.70;;;20.20;72.50;;;;;;5030547;28;20052;-70
2023/07/30 09:32:20;;;;;;;8.63;1.70;;;20.30;70.00;;;;;;5034703;28;20428;-71
2023/07/30 09:34:46;;;;;;;6.93;1.40;;;20.30;69.90;;;;;;5041855;28;20048;-71
2023/07/30 09:37:13;;;;;;;10.93;1.77;;;20.50;70.80;;;;;;5045181;28;20041;-71
2023/07/30 09:39:39;;;;;;;7.87;1.47;;;20.80;70.10;;;;;;5040315;28;20026;-70
2023/07/30 09:42:05;;;;;;;11.80;2.00;;;20.80;68.10;;;;;;5039583;28;20099;-71
2023/07/30 09:44:35;;;;;;;9.53;2.07;;;20.60;68.80;;;;;;5041836;28;20855;-71
2023/07/30 09:47:04;;;;;;;10.77;1.70;;;20.20;67.10;;;;;;5039029;28;20688;-71
2023/07/30 09:49:31;;;;;;;8.40;1.60;;;19.80;67.00;;;;;;5038275;28;20048;-71
2023/07/30 09:51:58;;;;;;;10.63;1.77;;;19.60;69.50;;;;;;5035997;28;20045;-70
2023/07/30 09:54:24;;;;;;;10.43;2.00;;;19.80;69.40;;;;;;5039500;28;20053;-71
2023/07/30 09:56:49;;;;;;;9.30;1.70;;;19.90;69.10;;;;;;5039447;28;20056;-71
2023/07/30 09:59:15;;;;;;;12.37;1.97;;;20.10;69.40;;;;;;5035122;28;20037;-71
2023/07/30 10:01:53;;;;;;;9.43;1.43;;;20.10;69.00;;;;;;5040161;28;20040;-71
2023/07/30 10:04:20;;;;;;;14.20;2.53;;;20.10;68.60;;;;;;5041933;28;20125;-71
2023/07/30 10:06:56;;;;;;;9.57;1.93;;;20.00;69.10;;;;;;5045689;28;20120;-71
2023/07/30 10:09:25;;;;;;;10.17;1.80;;;20.10;68.30;;;;;;5039122;28;20068;-70
2023/07/30 10:11:53;;;;;;;9.33;1.90;;;20.00;69.40;;;;;;5046411;28;20595;-71
2023/07/30 10:14:23;;;;;;;11.17;1.83;;;20.10;68.60;;;;;;5043156;28;20056;-71
2023/07/30 10:16:58;;;;;;;8.63;1.70;;;20.00;65.60;;;;;;5026413;28;20160;-71
2023/07/30 10:19:28;;;;;;;10.43;2.57;;;19.80;68.00;;;;;;5041272;28;20385;-71
2023/07/30 10:21:59;;;;;;;9.53;1.63;;;20.00;69.30;;;;;;5020229;28;20060;-71
2023/07/30 10:24:26;;;;;;;10.23;1.80;;;20.20;68.00;;;;;;5042558;28;20099;-71
2023/07/30 10:26:53;;;;;;;10.83;1.70;;;20.40;67.70;;;;;;5043631;28;20045;-70
2023/07/30 10:29:20;;;;;;;10.13;1.87;;;20.60;68.10;;;;;;5040270;28;20531;-70
2023/07/30 10:31:57;;;;;;;8.00;1.87;;;20.90;66.80;;;;;;5038542;28;20044;-70
2023/07/30 10:34:27;;;;;;;8.83;1.47;;;21.00;65.00;;;;;;5042766;28;20055;-70
2023/07/30 10:36:55;;;;;;;7.63;1.30;;;21.10;66.00;;;;;;5046711;28;20045;-70
2023/07/30 10:39:26;;;;;;;9.90;1.60;;;21.20;65.10;;;;;;5041385;28;20029;-70
2023/07/30 10:41:55;;;;;;;6.50;1.17;;;21.10;63.90;;;;;;5045213;28;20469;-70
2023/07/30 10:44:26;;;;;;;11.27;1.67;;;21.00;64.30;;;;;;5042660;28;20044;-70
2023/07/30 10:46:54;;;;;;;11.70;2.03;;;21.00;64.90;;;;;;5044173;28;20191;-70
2023/07/30 10:49:20;;;;;;;9.97;1.97;;;21.10;63.80;;;;;;5041977;28;20049;-70
2023/07/30 10:51:45;;;;;;;8.47;1.57;;;20.80;63.40;;;;;;5041992;28;21711;-71
2023/07/30 10:54:11;;;;;;;10.83;1.93;;;20.60;64.50;;;;;;5027420;28;20557;-71
2023/07/30 10:56:38;;;;;;;12.40;2.07;;;20.40;65.90;;;;;;5062947;28;20090;-71
2023/07/30 10:59:05;;;;;;;8.50;1.73;;;20.20;67.30;;;;;;5035363;28;20123;-71
2023/07/30 11:01:31;;;;;;;10.90;1.90;;;20.10;67.20;;;;;;5030290;28;20430;-71
2023/07/30 11:03:57;;;;;;;7.20;1.50;;;20.20;66.30;;;;;;5040289;28;20128;-71
2023/07/30 11:06:24;;;;;;;8.90;1.63;;;20.10;65.60;;;;;;5031852;28;20044;-71
2023/07/30 11:08:50;;;;;;;9.80;1.60;;;20.10;65.70;;;;;;5043213;28;20190;-71
2023/07/30 11:11:16;;;;;;;13.47;1.73;;;20.10;66.80;;;;;;5044808;28;20487;-71
2023/07/30 11:13:47;;;;;;;6.70;1.63;;;20.30;67.60;;;;;;5045762;28;20131;-71
2023/07/30 11:16:14;;;;;;;9.40;1.47;;;20.40;67.70;;;;;;5025621;28;20045;-71
2023/07/30 11:18:41;;;;;;;7.77;1.17;;;20.50;67.40;;;;;;5043658;28;20886;-71
2023/07/30 11:21:07;;;;;;;10.53;1.50;;;20.40;69.00;;;;;;5019469;28;20534;-71
2023/07/30 11:23:35;;;;;;;9.10;1.30;;;20.10;68.60;;;;;;5038433;28;20037;-71
2023/07/30 11:26:03;;;;;;;7.30;1.00;;;19.90;70.30;;;;;;5036943;28;20041;-71
2023/07/30 11:28:39;;;;;;;9.43;1.33;;;19.60;73.20;;;;;;5042306;28;20041;-71
2023/07/30 11:31:26;;;;;;;10.40;1.67;;;19.20;74.90;;;;;;5032312;28;20490;-71
2023/07/30 11:33:52;;;;;;;11.27;1.83;;;18.80;75.80;;;;;;5035006;28;20029;-71
2023/07/30 11:36:24;;;;;;;11.40;1.40;;;18.70;77.30;;;;;;5031871;28;20040;-71
2023/07/30 11:38:52;;;;;;;9.23;1.80;;;18.80;80.70;;;;;;5031362;28;20063;-72
2023/07/30 11:41:19;;;;;;;9.20;1.83;;;19.20;80.40;;;;;;5045536;28;20576;-71
2023/07/30 11:43:45;;;;;;;11.37;2.10;;;19.50;77.70;;;;;;5044809;28;20346;-71
2023/07/30 11:46:16;;;;;;;13.60;1.93;;;19.50;76.20;;;;;;5048565;28;20044;-72
2023/07/30 11:48:45;;;;;;;11.37;1.77;;;19.40;74.80;;;;;;5057897;28;20099;-72
2023/07/30 11:51:28;;;;;;;14.87;1.73;;;19.10;73.90;;;;;;5041523;28;20052;-71
2023/07/30 11:53:54;;;;;;;8.83;1.70;;;18.90;74.10;;;;;;5062674;28;20428;-72
2023/07/30 11:56:23;;;;;;;8.27;1.47;;;19.00;75.50;;;;;;5034866;28;20183;-72
2023/07/30 11:58:50;;;;;;;6.73;0.87;;;19.30;72.30;;;;;;5040244;28;20041;-72
2023/07/30 12:01:17;;;;;;;7.40;1.63;;;19.70;71.20;;;;;;5025318;28;20052;-72
2023/07/30 12:03:43;;;;;;;10.63;1.63;;;20.10;69.60;;;;;;5034925;28;20525;-72
2023/07/30 12:06:10;;;;;;;9.80;1.17;;;20.30;69.40;;;;;;5029173;28;20083;-72
2023/07/30 12:08:37;;;;;;;7.53;1.10;;;20.30;66.90;;;;;;5024427;28;21112;-72
2023/07/30 12:11:08;;;;;;;5.97;0.80;;;20.30;68.20;;;;;;5038712;28;20033;-72
2023/07/30 12:13:34;;;;;;;7.13;0.80;;;20.60;66.90;;;;;;5005679;28;20489;-72
2023/07/30 12:15:59;;;;;;;8.03;1.37;;;20.70;65.80;;;;;;4995667;28;20045;-72
2023/07/30 12:18:27;;;;;;;10.97;1.73;;;20.70;64.90;;;;;;5003487;28;20034;-72
2023/07/30 12:20:53;;;;;;;9.80;1.20;;;20.30;65.90;;;;;;5006611;28;20037;-72
2023/07/30 12:23:20;;;;;;;10.43;1.13;;;19.90;65.10;;;;;;5011540;28;20041;-72
2023/07/30 12:25:46;;;;;;;9.77;1.50;;;19.80;65.80;;;;;;4999808;28;20495;-72
2023/07/30 12:28:13;;;;;;;10.10;1.50;;;19.70;66.20;;;;;;5007132;28;20076;-72
2023/07/30 12:30:39;;;;;;;7.97;1.40;;;19.70;67.10;;;;;;5003879;28;20048;-72
2023/07/30 12:33:05;;;;;;;7.73;1.00;;;20.00;67.50;;;;;;5000632;28;20046;-72
2023/07/30 12:35:32;;;;;;;9.47;1.40;;;20.10;67.00;;;;;;5004941;28;20080;-72
2023/07/30 12:37:58;;;;;;;7.67;1.53;;;20.10;66.30;;;;;;4997479;28;20037;-72